ワルシャワ の空港の天気 - METARとTAF

ワルシャワ・フレデリック・ショパン空港 ( EPWA / WAW ) - ポーランド ワルシャワ
飛行場実況気象(Metar)
観測時間02/26 04:30 CET (02/26 03:30 UTC)
風向・風速北東 4m/s
視程10km以上
天気現象
全天の8割程度の雲 雲底高度 790m
気温-11℃
湿度72%
気圧1027hPa
METAREPWA 260330Z 04008KT 9999 BKN026 M11/M15 Q1027 NOSIG
過去の天気等 Google飛行場航空写真 Wunderground天気予報

過去48時間のMETAR

飛行場予報(TAF)
発表時間: 2/26 00:30 CET (2/25 23:30 UTC)
予報対象時間: 26日1時 CET ~ 27日1時 CET
風向・風速北北東 3m/s
視程10km以上
全天の4割程度の雲 雲底高度 610m
26日1時 CET から 確率 40% で
天気現象弱い雪
全天の8割程度の雲 雲底高度 370m
TAF EPWA 252330Z 2600/2624 03006KT 9999 SCT020
PROB40 2600/2612 -SN BKN012